createdAt,value
2018-05-26T00:01:43.570Z,15.20
2018-05-26T00:04:12.389Z,6.87
2018-05-26T00:06:41.232Z,6.40
2018-05-26T00:09:10.390Z,6.50
2018-05-26T00:11:39.732Z,6.43
2018-05-26T00:14:09.630Z,6.47
2018-05-26T00:16:39.150Z,6.70
2018-05-26T00:19:08.411Z,6.63
2018-05-26T00:21:37.414Z,6.60
2018-05-26T00:24:06.371Z,7.40
2018-05-26T00:26:35.290Z,6.70
2018-05-26T00:29:04.610Z,6.80
2018-05-26T00:31:33.090Z,7.10
2018-05-26T00:34:01.791Z,6.60
2018-05-26T00:36:31.349Z,6.43
2018-05-26T00:39:00.330Z,6.20
2018-05-26T00:41:28.930Z,7.03
2018-05-26T00:43:57.850Z,6.70
2018-05-26T00:46:26.910Z,6.60
2018-05-26T00:48:55.810Z,6.30
2018-05-26T00:51:25.296Z,6.93
2018-05-26T00:53:54.129Z,6.30
2018-05-26T00:56:23.289Z,5.70
2018-05-26T00:58:53.730Z,5.90
2018-05-26T01:01:23.489Z,5.60
2018-05-26T01:03:52.311Z,6.10
2018-05-26T01:06:21.832Z,6.10
2018-05-26T01:08:51.210Z,5.43
2018-05-26T01:11:19.717Z,6.37
2018-05-26T01:13:48.550Z,6.60
2018-05-26T01:16:17.169Z,6.10
2018-05-26T01:18:46.010Z,6.00
2018-05-26T01:21:15.709Z,5.20
2018-05-26T01:23:44.610Z,6.43
2018-05-26T01:26:13.770Z,6.60
2018-05-26T01:28:43.269Z,6.67
2018-05-26T01:31:11.829Z,6.30
2018-05-26T01:33:41.029Z,6.50
2018-05-26T01:36:11.010Z,6.70
2018-05-26T01:38:40.290Z,6.00
2018-05-26T01:41:09.090Z,6.17
2018-05-26T01:43:38.269Z,7.50
2018-05-26T01:46:06.970Z,6.37
2018-05-26T01:48:36.490Z,6.87
2018-05-26T01:51:05.750Z,5.80
2018-05-26T01:53:34.209Z,5.90
2018-05-26T01:56:02.809Z,7.17
2018-05-26T01:58:31.210Z,7.17
2018-05-26T02:01:00.932Z,7.07
2018-05-26T02:03:29.550Z,6.20
2018-05-26T02:05:58.971Z,6.50
2018-05-26T02:08:28.453Z,6.60
2018-05-26T02:10:57.449Z,6.10
2018-05-26T02:13:27.189Z,7.87
2018-05-26T02:15:56.709Z,7.50
2018-05-26T02:18:26.492Z,8.40
2018-05-26T02:20:56.229Z,7.90
2018-05-26T02:23:25.750Z,6.60
2018-05-26T02:25:55.770Z,6.63
2018-05-26T02:28:24.609Z,6.60
2018-05-26T02:30:53.156Z,6.97
2018-05-26T02:33:22.450Z,7.30
2018-05-26T02:35:53.309Z,6.37
2018-05-26T02:38:22.249Z,6.80
2018-05-26T02:40:52.610Z,6.57
2018-05-26T02:43:21.510Z,6.43
2018-05-26T02:45:51.032Z,5.73
2018-05-26T02:48:21.049Z,5.93
2018-05-26T02:50:50.789Z,5.63
2018-05-26T02:53:19.269Z,6.73
2018-05-26T02:55:47.768Z,6.90
2018-05-26T02:58:17.533Z,6.20
2018-05-26T03:00:47.589Z,5.47
2018-05-26T03:03:17.049Z,5.87
2018-05-26T03:05:51.272Z,8.87
2018-05-26T03:08:25.733Z,5.70
2018-05-26T03:10:59.710Z,6.00
2018-05-26T03:13:34.109Z,6.40
2018-05-26T03:16:07.229Z,5.20
2018-05-26T03:18:36.369Z,5.53
2018-05-26T03:21:06.730Z,6.13
2018-05-26T03:23:36.129Z,6.00
2018-05-26T03:26:07.169Z,6.70
2018-05-26T03:28:35.709Z,6.33
2018-05-26T03:31:04.632Z,6.10
2018-05-26T03:33:33.689Z,6.23
2018-05-26T03:36:03.129Z,6.40
2018-05-26T03:38:32.909Z,6.03
2018-05-26T03:41:01.991Z,6.17
2018-05-26T03:43:31.288Z,7.93
2018-05-26T03:46:00.389Z,6.73
2018-05-26T03:48:29.889Z,6.37
2018-05-26T03:50:59.149Z,5.43
2018-05-26T03:53:27.889Z,5.87
2018-05-26T03:56:08.270Z,6.60
2018-05-26T03:58:48.649Z,6.50
2018-05-26T04:01:19.690Z,6.33
2018-05-26T04:03:48.509Z,7.00
2018-05-26T04:06:18.712Z,6.97
2018-05-26T04:08:47.949Z,6.40
2018-05-26T04:11:17.199Z,5.87
2018-05-26T04:13:46.189Z,6.57
2018-05-26T04:16:15.449Z,6.50
2018-05-26T04:18:44.328Z,6.70
2018-05-26T04:21:12.849Z,6.70
2018-05-26T04:23:41.912Z,6.30
2018-05-26T04:26:11.329Z,6.87
2018-05-26T04:28:40.409Z,6.63
2018-05-26T04:31:09.409Z,6.00
2018-05-26T04:33:38.419Z,7.07
2018-05-26T04:36:07.689Z,6.50
2018-05-26T04:38:36.889Z,7.70
2018-05-26T04:41:05.449Z,7.00
2018-05-26T04:43:33.968Z,7.83
2018-05-26T04:46:03.609Z,7.97
2018-05-26T04:48:32.409Z,6.77
2018-05-26T04:51:01.350Z,7.37
2018-05-26T04:53:30.849Z,7.60
2018-05-26T04:55:59.608Z,7.50
2018-05-26T04:58:28.709Z,7.40
2018-05-26T05:00:57.589Z,14.33
2018-05-26T05:03:26.668Z,8.00
2018-05-26T05:05:55.828Z,7.40
2018-05-26T05:08:25.029Z,7.37
2018-05-26T05:10:53.550Z,8.10
2018-05-26T05:13:21.868Z,7.77
2018-05-26T05:15:51.609Z,8.07
2018-05-26T05:18:20.369Z,7.10
2018-05-26T05:20:49.388Z,7.70
2018-05-26T05:23:17.997Z,9.33
2018-05-26T05:25:47.289Z,6.63
2018-05-26T05:28:17.029Z,7.00
2018-05-26T05:30:46.129Z,7.40
2018-05-26T05:33:15.257Z,8.00
2018-05-26T05:35:44.509Z,7.90
2018-05-26T05:38:13.489Z,7.40
2018-05-26T05:40:42.090Z,8.03
2018-05-26T05:43:10.969Z,7.10
2018-05-26T05:45:40.070Z,7.93
2018-05-26T05:48:08.689Z,8.03
2018-05-26T05:50:37.449Z,7.90
2018-05-26T05:53:06.269Z,7.93
2018-05-26T05:55:34.969Z,7.63
2018-05-26T05:58:04.729Z,7.80
2018-05-26T06:00:33.637Z,8.50
2018-05-26T06:03:02.010Z,7.87
2018-05-26T06:05:31.450Z,8.23
2018-05-26T06:08:00.231Z,8.00
2018-05-26T06:10:29.390Z,7.70
2018-05-26T06:12:58.590Z,8.20
2018-05-26T06:15:28.213Z,8.07
2018-05-26T06:17:57.429Z,7.30
2018-05-26T06:20:26.129Z,8.03
2018-05-26T06:22:55.210Z,8.60
2018-05-26T06:25:24.409Z,8.40
2018-05-26T06:27:53.230Z,8.00
2018-05-26T06:30:22.192Z,7.60
2018-05-26T06:32:51.450Z,7.97
2018-05-26T06:35:20.609Z,7.57
2018-05-26T06:37:49.710Z,7.50
2018-05-26T06:40:19.109Z,8.10
2018-05-26T06:42:48.610Z,8.03
2018-05-26T06:45:17.847Z,7.70
2018-05-26T06:47:46.869Z,7.60
2018-05-26T06:50:16.089Z,9.40
2018-05-26T06:52:45.792Z,7.10
2018-05-26T06:55:14.329Z,6.20
2018-05-26T06:57:43.358Z,7.50
2018-05-26T07:00:12.603Z,5.90
2018-05-26T07:02:41.190Z,6.30
2018-05-26T07:05:10.309Z,6.90
2018-05-26T07:07:39.850Z,6.50
2018-05-26T07:10:09.289Z,6.93
2018-05-26T07:12:37.789Z,6.80
2018-05-26T07:15:06.450Z,6.53
2018-05-26T07:17:35.031Z,6.37
2018-05-26T07:20:04.009Z,7.40
2018-05-26T07:22:32.750Z,6.10
2018-05-26T07:25:01.229Z,6.67
2018-05-26T07:27:30.489Z,6.10
2018-05-26T07:29:59.809Z,6.77
2018-05-26T07:32:28.610Z,6.40
2018-05-26T07:34:57.969Z,7.37
2018-05-26T07:37:26.731Z,7.30
2018-05-26T07:39:55.909Z,6.27
2018-05-26T07:42:25.990Z,6.23
2018-05-26T07:44:55.070Z,6.80
2018-05-26T07:47:26.009Z,7.20
2018-05-26T07:49:55.769Z,6.50
2018-05-26T07:52:24.512Z,8.40
2018-05-26T07:54:53.243Z,6.20
2018-05-26T07:57:21.849Z,6.57
2018-05-26T07:59:50.970Z,5.87
2018-05-26T08:02:19.491Z,6.50
2018-05-26T08:04:49.190Z,6.00
2018-05-26T08:07:17.691Z,6.43
2018-05-26T08:09:47.551Z,6.53
2018-05-26T08:12:16.450Z,6.27
2018-05-26T08:14:45.713Z,26.40
2018-05-26T08:17:14.714Z,7.13
2018-05-26T08:19:43.691Z,7.17
2018-05-26T08:22:12.785Z,6.73
2018-05-26T08:24:41.742Z,7.33
2018-05-26T08:27:11.285Z,7.40
2018-05-26T08:29:40.419Z,6.90
2018-05-26T08:32:09.203Z,7.60
2018-05-26T08:34:38.634Z,6.87
2018-05-26T08:37:06.903Z,7.30
2018-05-26T08:39:36.403Z,7.70
2018-05-26T08:42:05.364Z,12.27
2018-05-26T08:44:34.163Z,7.47
2018-05-26T08:47:02.863Z,7.30
2018-05-26T08:49:32.123Z,8.03
2018-05-26T08:52:00.863Z,7.63
2018-05-26T08:54:30.123Z,7.33
2018-05-26T08:56:59.363Z,7.10
2018-05-26T08:59:28.568Z,7.00
2018-05-26T09:01:58.123Z,7.40
2018-05-26T09:04:27.363Z,7.70
2018-05-26T09:06:56.489Z,7.30
2018-05-26T09:09:25.647Z,9.43
2018-05-26T09:11:54.864Z,8.13
2018-05-26T09:14:24.123Z,9.23
2018-05-26T09:16:53.604Z,8.93
2018-05-26T09:19:22.863Z,9.47
2018-05-26T09:21:51.156Z,9.10
2018-05-26T09:24:20.083Z,9.07
2018-05-26T09:26:48.746Z,8.87
2018-05-26T09:29:18.332Z,9.50
2018-05-26T09:31:48.083Z,9.33
2018-05-26T09:34:16.824Z,10.70
2018-05-26T09:36:45.424Z,10.03
2018-05-26T09:39:14.812Z,10.10
2018-05-26T09:41:43.904Z,10.30
2018-05-26T09:44:12.564Z,11.17
2018-05-26T09:46:42.043Z,9.30
2018-05-26T09:49:11.560Z,10.77
2018-05-26T09:51:41.041Z,10.80
2018-05-26T09:54:09.787Z,10.03
2018-05-26T09:56:38.800Z,13.03
2018-05-26T09:59:08.022Z,11.70
2018-05-26T10:01:37.539Z,12.00
2018-05-26T10:04:06.279Z,9.50
2018-05-26T10:06:36.079Z,10.67
2018-05-26T10:09:04.859Z,14.43
2018-05-26T10:11:33.783Z,13.13
2018-05-26T10:14:03.774Z,13.97
2018-05-26T10:16:32.254Z,14.47
2018-05-26T10:19:00.753Z,15.47
2018-05-26T10:21:30.753Z,13.43
2018-05-26T10:23:59.744Z,13.47
2018-05-26T10:26:29.025Z,12.80
2018-05-26T10:28:58.803Z,12.87
2018-05-26T10:31:27.605Z,13.43
2018-05-26T10:33:56.449Z,14.57
2018-05-26T10:36:24.983Z,14.50
2018-05-26T10:38:53.991Z,13.10
2018-05-26T10:41:23.744Z,13.50
2018-05-26T10:43:53.524Z,13.37
2018-05-26T10:46:27.703Z,15.90
2018-05-26T10:48:55.945Z,14.90
2018-05-26T10:51:25.583Z,15.97
2018-05-26T10:53:55.563Z,15.30
2018-05-26T10:56:25.103Z,17.57
2018-05-26T10:58:54.063Z,15.03
2018-05-26T11:01:23.700Z,14.47
2018-05-26T11:03:52.610Z,17.97
2018-05-26T11:06:21.849Z,19.50
2018-05-26T11:08:51.109Z,16.70
2018-05-26T11:11:20.589Z,19.53
2018-05-26T11:13:49.269Z,17.73
2018-05-26T11:16:18.090Z,20.00
2018-05-26T11:18:47.569Z,18.77
2018-05-26T11:21:16.578Z,17.87
2018-05-26T11:23:45.150Z,17.37
2018-05-26T11:26:14.357Z,16.00
2018-05-26T11:28:43.549Z,16.10
2018-05-26T11:31:11.789Z,13.63
2018-05-26T11:33:40.791Z,13.40
2018-05-26T11:36:10.550Z,12.23
2018-05-26T11:38:40.308Z,10.90
2018-05-26T11:41:08.868Z,14.50
2018-05-26T11:43:39.874Z,10.83
2018-05-26T11:46:08.556Z,9.67
2018-05-26T11:48:38.828Z,9.50
2018-05-26T11:51:07.588Z,9.60
2018-05-26T11:53:36.867Z,9.37
2018-05-26T11:56:06.311Z,9.00
2018-05-26T11:58:35.127Z,9.40
2018-05-26T12:01:04.067Z,8.73
2018-05-26T12:03:33.567Z,9.70
2018-05-26T12:06:02.367Z,10.87
2018-05-26T12:08:31.547Z,10.53
2018-05-26T12:11:00.410Z,9.27
2018-05-26T12:13:29.147Z,9.37
2018-05-26T12:15:58.110Z,9.00
2018-05-26T12:18:27.488Z,9.93
2018-05-26T12:20:55.847Z,10.27
2018-05-26T12:23:25.349Z,9.33
2018-05-26T12:25:54.409Z,8.70
2018-05-26T12:28:23.607Z,8.63
2018-05-26T12:30:52.216Z,7.97
2018-05-26T12:33:21.222Z,7.77
2018-05-26T12:35:50.462Z,9.10
2018-05-26T12:38:19.042Z,8.97
2018-05-26T12:40:48.243Z,7.90
2018-05-26T12:43:17.925Z,8.97
2018-05-26T12:45:46.701Z,8.83
2018-05-26T12:48:15.266Z,9.00
2018-05-26T12:50:44.672Z,8.93
2018-05-26T12:53:13.490Z,8.67
2018-05-26T12:55:42.150Z,8.17
2018-05-26T12:58:10.971Z,8.23
2018-05-26T13:00:40.154Z,8.43
2018-05-26T13:03:09.374Z,11.10
2018-05-26T13:05:38.733Z,8.70
2018-05-26T13:08:07.613Z,8.93
2018-05-26T13:10:36.833Z,8.93
2018-05-26T13:13:05.615Z,7.50
2018-05-26T13:15:34.873Z,8.73
2018-05-26T13:18:03.614Z,7.90
2018-05-26T13:20:32.614Z,8.60
2018-05-26T13:23:01.860Z,7.47
2018-05-26T13:25:31.374Z,8.03
2018-05-26T13:28:00.754Z,8.27
2018-05-26T13:30:30.374Z,7.77
2018-05-26T13:32:59.384Z,12.93
2018-05-26T13:35:28.894Z,9.40
2018-05-26T13:37:58.394Z,8.80
2018-05-26T13:40:28.135Z,7.70
2018-05-26T13:42:57.275Z,8.77
2018-05-26T13:45:26.542Z,9.50
2018-05-26T13:47:55.795Z,9.60
2018-05-26T13:50:24.853Z,9.27
2018-05-26T13:52:54.288Z,9.60
2018-05-26T13:55:23.385Z,9.80
2018-05-26T13:57:52.894Z,16.70
2018-05-26T14:00:22.633Z,9.60
2018-05-26T14:02:51.894Z,9.47
2018-05-26T14:05:20.522Z,9.23
2018-05-26T14:07:49.793Z,9.30
2018-05-26T14:10:18.874Z,8.70
2018-05-26T14:12:47.594Z,9.17
2018-05-26T14:15:17.101Z,10.80
2018-05-26T14:17:46.357Z,8.13
2018-05-26T14:20:15.614Z,8.90
2018-05-26T14:22:44.573Z,10.63
2018-05-26T14:25:14.354Z,10.37
2018-05-26T14:27:42.594Z,8.53
2018-05-26T14:30:12.873Z,7.73
2018-05-26T14:32:42.493Z,7.83
2018-05-26T14:35:11.434Z,9.30
2018-05-26T14:37:40.723Z,8.17
2018-05-26T14:40:10.173Z,9.00
2018-05-26T14:42:39.614Z,6.40
2018-05-26T14:45:08.833Z,6.70
2018-05-26T14:47:37.454Z,6.07
2018-05-26T14:50:06.390Z,6.63
2018-05-26T14:52:35.434Z,7.50
2018-05-26T14:55:04.433Z,7.07
2018-05-26T14:57:32.813Z,6.00
2018-05-26T15:00:01.897Z,5.50
2018-05-26T15:02:30.434Z,6.17
2018-05-26T15:05:00.316Z,6.77
2018-05-26T15:07:30.453Z,5.30
2018-05-26T15:09:59.834Z,5.37
2018-05-26T15:12:29.533Z,6.30
2018-05-26T15:14:59.452Z,4.50
2018-05-26T15:17:28.393Z,5.60
2018-05-26T15:19:57.734Z,6.80
2018-05-26T15:22:26.413Z,6.00
2018-05-26T15:24:55.833Z,5.70
2018-05-26T15:27:24.673Z,5.57
2018-05-26T15:29:53.813Z,4.67
2018-05-26T15:32:22.812Z,5.00
2018-05-26T15:34:51.433Z,4.97
2018-05-26T15:37:20.015Z,5.00
2018-05-26T15:39:50.573Z,5.30
2018-05-26T15:42:20.359Z,5.10
2018-05-26T15:44:50.194Z,6.03
2018-05-26T15:47:18.813Z,5.50
2018-05-26T15:49:48.053Z,5.50
2018-05-26T15:52:18.333Z,6.10
2018-05-26T15:54:47.336Z,5.43
2018-05-26T15:57:16.574Z,6.37
2018-05-26T15:59:45.856Z,5.50
2018-05-26T16:02:15.074Z,6.50
2018-05-26T16:04:44.337Z,6.77
2018-05-26T16:07:14.856Z,6.70
2018-05-26T16:09:43.575Z,6.07
2018-05-26T16:12:12.074Z,6.20
2018-05-26T16:14:41.193Z,6.20
2018-05-26T16:17:10.214Z,5.90
2018-05-26T16:19:40.073Z,6.00
2018-05-26T16:22:09.293Z,6.03
2018-05-26T16:24:38.157Z,5.53
2018-05-26T16:27:07.054Z,6.10
2018-05-26T16:29:35.793Z,6.30
2018-05-26T16:32:05.295Z,5.70
2018-05-26T16:34:34.113Z,6.27
2018-05-26T16:37:03.793Z,6.33
2018-05-26T16:39:33.562Z,7.17
2018-05-26T16:42:02.154Z,6.70
2018-05-26T16:44:31.573Z,6.40
2018-05-26T16:47:01.333Z,7.40
2018-05-26T16:49:30.557Z,7.10
2018-05-26T16:51:59.853Z,7.53
2018-05-26T16:54:28.414Z,7.00
2018-05-26T16:56:58.153Z,6.30
2018-05-26T16:59:27.297Z,11.80
2018-05-26T17:01:56.254Z,7.00
2018-05-26T17:04:25.571Z,7.20
2018-05-26T17:06:54.793Z,7.10
2018-05-26T17:09:23.761Z,8.50
2018-05-26T17:11:52.613Z,7.40
2018-05-26T17:14:21.533Z,6.33
2018-05-26T17:16:51.554Z,8.50
2018-05-26T17:19:21.914Z,7.43
2018-05-26T17:21:52.593Z,7.10
2018-05-26T17:24:21.859Z,6.60
2018-05-26T17:26:51.433Z,6.30
2018-05-26T17:29:20.595Z,6.33
2018-05-26T17:31:49.854Z,6.40
2018-05-26T17:34:20.107Z,6.60
2018-05-26T17:36:49.613Z,6.33
2018-05-26T17:39:18.894Z,6.60
2018-05-26T17:41:47.937Z,6.17
2018-05-26T17:44:16.540Z,5.67
2018-05-26T17:46:45.693Z,5.70
2018-05-26T17:49:15.097Z,6.17
2018-05-26T17:51:44.854Z,5.47
2018-05-26T17:54:13.953Z,6.77
2018-05-26T17:56:43.093Z,6.10
2018-05-26T17:59:12.615Z,5.60
2018-05-26T18:01:41.856Z,5.10
2018-05-26T18:04:11.093Z,5.47
2018-05-26T18:06:40.613Z,5.57
2018-05-26T18:09:09.354Z,6.40
2018-05-26T18:11:38.258Z,5.03
2018-05-26T18:14:07.214Z,5.00
2018-05-26T18:16:36.853Z,6.43
2018-05-26T18:19:06.094Z,5.80
2018-05-26T18:21:34.434Z,6.47
2018-05-26T18:24:03.754Z,6.10
2018-05-26T18:26:33.333Z,5.50
2018-05-26T18:29:01.794Z,7.00
2018-05-26T18:31:31.574Z,7.00
2018-05-26T18:34:01.494Z,5.60
2018-05-26T18:36:30.574Z,6.53
2018-05-26T18:39:00.383Z,5.50
2018-05-26T18:41:29.354Z,5.40
2018-05-26T18:43:58.575Z,5.77
2018-05-26T18:46:27.414Z,5.83
2018-05-26T18:48:56.275Z,5.80
2018-05-26T18:51:25.374Z,5.77
2018-05-26T18:53:54.815Z,6.10
2018-05-26T18:56:25.275Z,5.50
2018-05-26T18:58:54.774Z,5.67
2018-05-26T19:01:23.573Z,6.00
2018-05-26T19:03:52.094Z,5.87
2018-05-26T19:06:21.813Z,6.43
2018-05-26T19:08:50.814Z,5.80
2018-05-26T19:11:19.894Z,6.23
2018-05-26T19:13:48.775Z,5.70
2018-05-26T19:16:17.892Z,6.30
2018-05-26T19:18:47.296Z,6.30
2018-05-26T19:21:15.773Z,5.60
2018-05-26T19:23:45.533Z,5.83
2018-05-26T19:26:14.796Z,6.87
2018-05-26T19:28:44.094Z,6.23
2018-05-26T19:31:13.553Z,6.37
2018-05-26T19:33:42.534Z,6.37
2018-05-26T19:36:12.093Z,6.40
2018-05-26T19:38:41.554Z,5.63
2018-05-26T19:41:11.333Z,7.00
2018-05-26T19:43:40.335Z,6.60
2018-05-26T19:46:08.893Z,6.80
2018-05-26T19:48:38.553Z,6.00
2018-05-26T19:51:07.273Z,7.43
2018-05-26T19:53:36.573Z,9.90
2018-05-26T19:56:06.034Z,7.90
2018-05-26T19:58:35.996Z,6.67
2018-05-26T20:01:04.793Z,7.67
2018-05-26T20:03:34.035Z,8.20
2018-05-26T20:06:03.186Z,9.27
2018-05-26T20:08:32.295Z,7.80
2018-05-26T20:11:01.435Z,10.73
2018-05-26T20:13:30.814Z,8.70
2018-05-26T20:16:00.273Z,7.50
2018-05-26T20:18:30.093Z,8.60
2018-05-26T20:20:58.975Z,8.50
2018-05-26T20:23:28.555Z,9.37
2018-05-26T20:25:57.534Z,7.93
2018-05-26T20:28:26.794Z,7.30
2018-05-26T20:30:55.255Z,6.87
2018-05-26T20:33:24.253Z,7.50
2018-05-26T20:35:54.033Z,8.77
2018-05-26T20:38:22.615Z,7.20
2018-05-26T20:40:51.756Z,8.17
2018-05-26T20:43:21.014Z,7.70
2018-05-26T20:45:50.515Z,7.30
2018-05-26T20:48:19.494Z,8.17
2018-05-26T20:50:48.494Z,7.47
2018-05-26T20:53:17.317Z,7.87
2018-05-26T20:55:46.093Z,7.63
2018-05-26T20:58:15.333Z,8.17
2018-05-26T21:00:44.334Z,8.03
2018-05-26T21:03:14.482Z,8.43
2018-05-26T21:05:43.574Z,15.20
2018-05-26T21:08:12.739Z,8.40
2018-05-26T21:10:41.833Z,6.63
2018-05-26T21:13:11.754Z,10.37
2018-05-26T21:15:41.014Z,7.80
2018-05-26T21:18:09.716Z,10.53
2018-05-26T21:20:38.714Z,8.77
2018-05-26T21:23:08.215Z,9.50
2018-05-26T21:25:37.214Z,11.20
2018-05-26T21:28:06.174Z,11.67
2018-05-26T21:30:35.512Z,8.90
2018-05-26T21:33:04.712Z,8.50
2018-05-26T21:35:33.892Z,8.80
2018-05-26T21:38:03.451Z,9.20
2018-05-26T21:40:33.230Z,9.40
2018-05-26T21:43:02.230Z,8.90
2018-05-26T21:45:31.971Z,9.90
2018-05-26T21:48:01.491Z,10.00
2018-05-26T21:50:30.253Z,9.30
2018-05-26T21:52:59.490Z,7.70
2018-05-26T21:55:27.971Z,7.40
2018-05-26T21:57:57.350Z,7.77
2018-05-26T22:00:26.451Z,7.40
2018-05-26T22:02:55.974Z,7.20
2018-05-26T22:05:25.451Z,6.27
2018-05-26T22:07:54.530Z,6.83
2018-05-26T22:10:24.214Z,9.10
2018-05-26T22:12:53.290Z,7.57
2018-05-26T22:15:22.474Z,8.90
2018-05-26T22:17:52.092Z,7.47
2018-05-26T22:20:20.720Z,8.17
2018-05-26T22:22:50.211Z,7.07
2018-05-26T22:25:19.470Z,7.23
2018-05-26T22:27:48.950Z,7.77
2018-05-26T22:30:17.676Z,6.60
2018-05-26T22:32:50.506Z,6.43
2018-05-26T22:35:19.762Z,6.77
2018-05-26T22:37:48.650Z,6.90
2018-05-26T22:40:18.510Z,7.07
2018-05-26T22:42:47.083Z,6.03
2018-05-26T22:45:16.124Z,7.30
2018-05-26T22:47:45.764Z,17.33
2018-05-26T22:50:14.862Z,6.83
2018-05-26T22:52:43.762Z,8.00
2018-05-26T22:55:13.522Z,7.50
2018-05-26T22:57:43.522Z,7.67
2018-05-26T23:00:12.267Z,8.07
2018-05-26T23:02:41.522Z,7.97
2018-05-26T23:05:10.262Z,8.60
2018-05-26T23:07:39.083Z,8.47
2018-05-26T23:10:08.244Z,7.97
2018-05-26T23:12:37.342Z,8.37
2018-05-26T23:15:06.243Z,8.83
2018-05-26T23:17:35.722Z,8.07
2018-05-26T23:20:04.402Z,8.40
2018-05-26T23:22:33.722Z,8.10
2018-05-26T23:25:02.307Z,8.57
2018-05-26T23:27:31.203Z,8.67
2018-05-26T23:30:01.044Z,8.17
2018-05-26T23:32:30.043Z,9.20
2018-05-26T23:34:58.683Z,9.50
2018-05-26T23:37:27.923Z,9.70
2018-05-26T23:39:56.442Z,10.03
2018-05-26T23:42:26.212Z,9.40
2018-05-26T23:44:55.442Z,9.53
2018-05-26T23:47:24.942Z,6.60
2018-05-26T23:49:54.485Z,8.20
2018-05-26T23:52:24.365Z,6.90
2018-05-26T23:54:53.442Z,7.10
2018-05-26T23:57:23.202Z,7.13
2018-05-26T23:59:52.722Z,6.80
